Time;durP1;ratioP1;P1;durP2;ratioP2;P2;SDS_P1;SDS_P2;PMS_P1;PMS_P2;Temp;Humidity;BMP_temperature;BMP_pressure;BME280_temperature;BME280_humidity;BME280_pressure;Samples;Min_cycle;Max_cycle;Signal;HPM_P1;HPM_P2
2023/03/29 00:01:09;;;;;;;7.68;3.38;;;;;;;;;;5030071;28;20021;-49
2023/03/29 00:03:35;;;;;;;11.43;3.92;;;;;;;;;;5029966;28;20059;-49
2023/03/29 00:06:04;;;;;;;27.70;10.25;;;;;;;;;;5029632;28;20017;-53
2023/03/29 00:08:33;;;;;;;82.50;31.25;;;;;;;;;;5043886;28;20021;-53
2023/03/29 00:10:59;;;;;;;28.80;11.80;;;;;;;;;;5029501;28;20040;-51
2023/03/29 00:13:25;;;;;;;20.08;8.25;;;;;;;;;;5029863;28;20402;-53
2023/03/29 00:15:50;;;;;;;18.48;7.30;;;;;;;;;;5030108;28;20020;-51
2023/03/29 00:18:16;;;;;;;19.42;6.57;;;;;;;;;;5030284;28;20021;-52
2023/03/29 00:20:41;;;;;;;12.95;4.70;;;;;;;;;;5029216;28;20578;-51
2023/03/29 00:23:06;;;;;;;8.75;4.22;;;;;;;;;;5029654;28;20025;-52
2023/03/29 00:25:32;;;;;;;5.10;3.15;;;;;;;;;;5029952;28;20028;-49
2023/03/29 00:27:57;;;;;;;9.27;3.45;;;;;;;;;;5029737;28;20411;-51
2023/03/29 00:30:22;;;;;;;7.35;3.15;;;;;;;;;;5029892;28;20474;-51
2023/03/29 00:32:48;;;;;;;9.82;3.35;;;;;;;;;;5026720;28;20052;-50
2023/03/29 00:35:13;;;;;;;6.15;3.20;;;;;;;;;;5028466;28;20028;-52
2023/03/29 00:37:40;;;;;;;7.75;3.00;;;;;;;;;;5029448;28;20459;-50
2023/03/29 00:40:08;;;;;;;7.05;2.72;;;;;;;;;;5029878;28;20017;-51
2023/03/29 00:42:33;;;;;;;5.35;2.80;;;;;;;;;;5029952;28;20025;-51
2023/03/29 00:45:05;;;;;;;4.88;3.08;;;;;;;;;;5029565;28;20528;-51
2023/03/29 00:47:44;;;;;;;9.48;3.30;;;;;;;;;;5025577;28;20021;-49
2023/03/29 00:50:15;;;;;;;5.57;2.60;;;;;;;;;;5026789;28;20018;-50
2023/03/29 00:52:42;;;;;;;4.75;2.83;;;;;;;;;;5026261;28;20041;-51
2023/03/29 00:55:11;;;;;;;7.80;2.90;;;;;;;;;;5023791;28;20033;-52
2023/03/29 00:57:37;;;;;;;3.67;2.70;;;;;;;;;;5026281;28;20030;-53
2023/03/29 01:00:04;;;;;;;6.72;3.35;;;;;;;;;;5026514;28;20529;-52
2023/03/29 01:02:33;;;;;;;5.20;3.05;;;;;;;;;;5040135;28;20424;-51
2023/03/29 01:04:58;;;;;;;;;;;;;;;;;;5025374;28;20066;-52
2023/03/29 01:07:29;;;;;;;3.40;2.25;;;;;;;;;;5040159;28;20285;-52
2023/03/29 01:10:13;;;;;;;8.38;3.00;;;;;;;;;;5026197;28;20033;-53
2023/03/29 01:12:42;;;;;;;6.72;2.88;;;;;;;;;;5026264;28;20021;-49
2023/03/29 01:15:12;;;;;;;8.88;3.17;;;;;;;;;;5026222;28;20099;-51
2023/03/29 01:17:39;;;;;;;12.40;3.78;;;;;;;;;;5026253;28;20056;-48
2023/03/29 01:20:12;;;;;;;6.32;2.80;;;;;;;;;;5026404;28;20091;-53
2023/03/29 01:22:43;;;;;;;10.60;3.28;;;;;;;;;;5025781;28;20369;-52
2023/03/29 01:25:19;;;;;;;6.20;2.75;;;;;;;;;;5026035;28;20426;-51
2023/03/29 01:27:46;;;;;;;7.55;3.28;;;;;;;;;;5025906;28;20025;-48
2023/03/29 01:30:13;;;;;;;30.55;8.70;;;;;;;;;;5026253;28;20029;-55
2023/03/29 01:32:49;;;;;;;36.60;10.50;;;;;;;;;;5025488;28;20057;-52
2023/03/29 01:35:14;;;;;;;15.13;6.82;;;;;;;;;;5025443;28;20073;-53
2023/03/29 01:37:46;;;;;;;11.18;4.05;;;;;;;;;;5026322;28;20057;-52
2023/03/29 01:40:12;;;;;;;11.40;3.42;;;;;;;;;;5025415;28;20034;-55
2023/03/29 01:42:48;;;;;;;5.97;2.95;;;;;;;;;;5025481;28;20160;-54
2023/03/29 01:45:13;;;;;;;7.97;2.50;;;;;;;;;;5025532;28;20032;-50
2023/03/29 01:47:43;;;;;;;6.18;2.60;;;;;;;;;;5025609;28;20017;-51
2023/03/29 01:50:14;;;;;;;4.68;2.28;;;;;;;;;;5025808;28;20022;-51
2023/03/29 01:52:44;;;;;;;7.07;2.90;;;;;;;;;;5025132;28;20088;-53
2023/03/29 01:55:12;;;;;;;6.30;3.05;;;;;;;;;;5025426;28;20471;-51
2023/03/29 01:57:39;;;;;;;14.15;4.28;;;;;;;;;;5025358;28;20061;-53
2023/03/29 02:00:09;;;;;;;15.00;4.95;;;;;;;;;;5025411;28;20029;-49
2023/03/29 02:02:35;;;;;;;11.73;4.20;;;;;;;;;;5025114;28;20364;-51
2023/03/29 02:05:01;;;;;;;14.18;4.63;;;;;;;;;;5025076;28;20040;-52
2023/03/29 02:07:29;;;;;;;7.85;3.03;;;;;;;;;;5025125;28;20072;-52
2023/03/29 02:09:56;;;;;;;7.07;3.27;;;;;;;;;;5005879;28;20383;-52
2023/03/29 02:12:21;;;;;;;5.55;2.80;;;;;;;;;;5024862;28;20105;-54
2023/03/29 02:14:46;;;;;;;7.35;2.88;;;;;;;;;;5024804;28;20167;-54
2023/03/29 02:17:17;;;;;;;5.53;2.50;;;;;;;;;;5024745;28;20225;-54
2023/03/29 02:19:44;;;;;;;4.38;2.35;;;;;;;;;;5024713;28;20025;-53
2023/03/29 02:22:10;;;;;;;3.47;2.08;;;;;;;;;;5024230;28;20245;-54
2023/03/29 02:24:37;;;;;;;6.20;2.50;;;;;;;;;;5024732;28;20451;-52
2023/03/29 02:27:03;;;;;;;3.42;2.22;;;;;;;;;;5024642;28;20057;-54
2023/03/29 02:29:29;;;;;;;6.63;2.70;;;;;;;;;;5024681;28;20083;-49
2023/03/29 02:31:58;;;;;;;5.20;2.70;;;;;;;;;;5024488;28;20079;-53
2023/03/29 02:34:36;;;;;;;4.18;2.20;;;;;;;;;;5024444;28;20045;-51
2023/03/29 02:37:05;;;;;;;7.78;2.40;;;;;;;;;;5024537;28;20095;-49
2023/03/29 02:39:31;;;;;;;;;;;;;;;;;;5024832;28;20700;-51
2023/03/29 02:41:56;;;;;;;8.75;2.60;;;;;;;;;;5024920;28;20134;-51
2023/03/29 02:44:24;;;;;;;7.00;2.97;;;;;;;;;;5024387;28;20030;-53
2023/03/29 02:46:52;;;;;;;4.38;2.80;;;;;;;;;;5024551;28;20294;-53
2023/03/29 02:49:17;;;;;;;6.75;3.00;;;;;;;;;;5024416;28;20029;-53
2023/03/29 02:51:46;;;;;;;4.60;3.03;;;;;;;;;;5024466;28;20528;-52
2023/03/29 02:54:17;;;;;;;5.20;2.33;;;;;;;;;;5024034;28;20419;-55
2023/03/29 02:56:46;;;;;;;9.63;3.35;;;;;;;;;;5024138;28;20123;-53
2023/03/29 02:59:12;;;;;;;23.10;6.60;;;;;;;;;;5024694;28;20324;-55
2023/03/29 03:01:38;;;;;;;20.15;6.25;;;;;;;;;;5024345;28;20356;-53
2023/03/29 03:04:03;;;;;;;15.50;5.13;;;;;;;;;;5024515;28;20387;-52
2023/03/29 03:06:29;;;;;;;20.90;5.63;;;;;;;;;;5024420;28;20590;-51
2023/03/29 03:08:54;;;;;;;17.38;4.40;;;;;;;;;;5023583;28;20103;-50
2023/03/29 03:11:20;;;;;;;18.48;4.78;;;;;;;;;;5023706;28;20029;-55
2023/03/29 03:13:45;;;;;;;17.35;4.95;;;;;;;;;;5024421;28;20021;-53
2023/03/29 03:16:10;;;;;;;16.13;5.68;;;;;;;;;;5024059;28;20025;-55
2023/03/29 03:18:36;;;;;;;16.90;6.15;;;;;;;;;;5023954;28;20067;-50
2023/03/29 03:21:03;;;;;;;14.30;5.43;;;;;;;;;;5023902;28;20157;-52
2023/03/29 03:23:29;;;;;;;9.07;3.80;;;;;;;;;;5023664;28;20486;-55
2023/03/29 03:25:54;;;;;;;6.82;3.67;;;;;;;;;;5024084;28;20066;-55
2023/03/29 03:28:20;;;;;;;7.38;3.97;;;;;;;;;;5024213;28;20029;-52
2023/03/29 03:30:46;;;;;;;6.40;3.90;;;;;;;;;;5024317;28;20040;-55
2023/03/29 03:33:11;;;;;;;12.52;3.72;;;;;;;;;;5021279;28;20049;-54
2023/03/29 03:35:37;;;;;;;10.88;4.22;;;;;;;;;;5023820;28;20033;-53
2023/03/29 03:38:03;;;;;;;19.38;7.32;;;;;;;;;;5023750;28;20408;-54
2023/03/29 03:40:28;;;;;;;37.17;15.10;;;;;;;;;;5021141;28;20582;-54
2023/03/29 03:42:54;;;;;;;76.15;27.02;;;;;;;;;;5023988;28;20022;-52
2023/03/29 03:45:19;;;;;;;87.22;33.30;;;;;;;;;;5023355;28;20033;-55
2023/03/29 03:47:44;;;;;;;69.00;26.67;;;;;;;;;;5023431;28;20021;-52
2023/03/29 03:50:10;;;;;;;49.15;17.48;;;;;;;;;;5023553;28;20117;-54
2023/03/29 03:52:35;;;;;;;22.08;8.95;;;;;;;;;;5023781;28;20120;-51
2023/03/29 03:55:03;;;;;;;25.17;9.38;;;;;;;;;;5023445;28;20065;-54
2023/03/29 03:57:28;;;;;;;25.75;8.77;;;;;;;;;;5023566;28;20117;-53
2023/03/29 03:59:53;;;;;;;26.80;9.95;;;;;;;;;;5023120;28;20105;-53
2023/03/29 04:02:19;;;;;;;44.33;13.48;;;;;;;;;;5023803;28;20117;-52
2023/03/29 04:04:45;;;;;;;50.78;15.15;;;;;;;;;;5023485;28;20410;-55
2023/03/29 04:07:11;;;;;;;44.20;13.23;;;;;;;;;;5021857;28;20030;-54
2023/03/29 04:09:37;;;;;;;50.65;12.68;;;;;;;;;;5023327;28;20028;-49
2023/03/29 04:12:03;;;;;;;41.22;13.35;;;;;;;;;;5023425;28;20025;-50
2023/03/29 04:14:30;;;;;;;89.88;22.52;;;;;;;;;;5023398;28;20045;-49
2023/03/29 04:16:56;;;;;;;90.95;23.63;;;;;;;;;;5023519;28;20278;-54
2023/03/29 04:19:21;;;;;;;49.47;15.23;;;;;;;;;;5023551;28;20364;-50
2023/03/29 04:21:48;;;;;;;47.65;15.43;;;;;;;;;;5021412;28;20037;-53
2023/03/29 04:24:14;;;;;;;39.47;13.40;;;;;;;;;;5026839;28;20021;-51
2023/03/29 04:26:39;;;;;;;43.10;13.45;;;;;;;;;;5027511;28;20083;-54
2023/03/29 04:29:05;;;;;;;46.88;14.75;;;;;;;;;;5024141;28;20526;-53
2023/03/29 04:31:31;;;;;;;48.38;13.82;;;;;;;;;;5026953;28;20029;-54
2023/03/29 04:33:56;;;;;;;37.95;12.13;;;;;;;;;;5026817;28;20045;-54
2023/03/29 04:36:21;;;;;;;40.70;13.63;;;;;;;;;;5027045;28;20025;-52
2023/03/29 04:38:47;;;;;;;30.42;10.90;;;;;;;;;;5027119;28;20479;-55
2023/03/29 04:41:14;;;;;;;37.22;12.45;;;;;;;;;;5026528;28;20025;-52
2023/03/29 04:43:40;;;;;;;48.17;14.00;;;;;;;;;;5026591;28;20017;-54
2023/03/29 04:46:06;;;;;;;98.85;30.90;;;;;;;;;;5025555;28;20037;-55
2023/03/29 04:48:32;;;;;;;98.03;31.98;;;;;;;;;;5026726;28;20017;-51
2023/03/29 04:50:58;;;;;;;98.53;32.78;;;;;;;;;;5026559;28;20083;-53
2023/03/29 04:53:23;;;;;;;67.30;21.33;;;;;;;;;;5026129;28;20027;-52
2023/03/29 04:55:49;;;;;;;78.07;27.38;;;;;;;;;;5026565;28;20033;-51
2023/03/29 04:58:14;;;;;;;112.68;40.67;;;;;;;;;;5026678;28;20095;-51
2023/03/29 05:00:39;;;;;;;156.20;54.95;;;;;;;;;;5023336;28;20033;-54
2023/03/29 05:03:06;;;;;;;131.65;42.38;;;;;;;;;;5026314;28;20025;-53
2023/03/29 05:05:31;;;;;;;73.10;22.27;;;;;;;;;;5025970;28;20021;-52
2023/03/29 05:07:57;;;;;;;26.85;10.00;;;;;;;;;;5026256;28;20403;-50
2023/03/29 05:10:22;;;;;;;12.80;6.25;;;;;;;;;;5026492;28;20474;-51
2023/03/29 05:12:52;;;;;;;17.67;7.63;;;;;;;;;;5026191;28;20060;-50
2023/03/29 05:15:18;;;;;;;23.85;7.18;;;;;;;;;;5026153;28;20025;-54
2023/03/29 05:17:43;;;;;;;13.65;5.65;;;;;;;;;;5026141;28;20500;-50
2023/03/29 05:20:09;;;;;;;20.83;6.70;;;;;;;;;;5026030;28;20049;-50
2023/03/29 05:22:35;;;;;;;19.25;7.97;;;;;;;;;;5025787;28;20461;-50
2023/03/29 05:25:00;;;;;;;27.55;9.48;;;;;;;;;;5025536;28;20471;-52
2023/03/29 05:27:26;;;;;;;47.20;12.32;;;;;;;;;;5025667;28;20016;-50
2023/03/29 05:29:51;;;;;;;53.47;17.15;;;;;;;;;;5026192;28;20107;-51
2023/03/29 05:32:17;;;;;;;48.72;16.33;;;;;;;;;;5025813;28;20491;-51
2023/03/29 05:34:42;;;;;;;23.70;10.50;;;;;;;;;;5025584;28;20184;-52
2023/03/29 05:37:09;;;;;;;26.42;8.50;;;;;;;;;;5021886;28;20050;-51
2023/03/29 05:39:36;;;;;;;28.25;9.98;;;;;;;;;;5024199;28;20029;-54
2023/03/29 05:42:01;;;;;;;25.83;9.05;;;;;;;;;;5026160;28;20363;-54
2023/03/29 05:44:27;;;;;;;45.90;12.82;;;;;;;;;;5025612;28;20352;-52
2023/03/29 05:46:52;;;;;;;48.50;14.45;;;;;;;;;;5025545;28;20438;-53
2023/03/29 05:49:17;;;;;;;32.45;10.52;;;;;;;;;;5024596;28;20029;-50
2023/03/29 05:51:44;;;;;;;23.42;10.00;;;;;;;;;;5025053;28;20128;-57
2023/03/29 05:54:10;;;;;;;25.20;9.35;;;;;;;;;;5022301;28;20033;-52
2023/03/29 05:56:35;;;;;;;28.90;9.07;;;;;;;;;;5024747;28;20099;-51
2023/03/29 05:59:01;;;;;;;15.90;7.55;;;;;;;;;;5024823;28;20278;-54
2023/03/29 06:01:26;;;;;;;21.20;7.40;;;;;;;;;;5025173;28;20033;-48
2023/03/29 06:03:52;;;;;;;14.70;6.38;;;;;;;;;;5025071;28;20521;-53
2023/03/29 06:06:17;;;;;;;21.90;8.48;;;;;;;;;;5013024;28;20032;-52
2023/03/29 06:08:43;;;;;;;22.58;9.15;;;;;;;;;;5023925;28;20025;-54
2023/03/29 06:11:10;;;;;;;24.40;10.00;;;;;;;;;;5025118;28;20034;-55
2023/03/29 06:13:37;;;;;;;17.77;8.57;;;;;;;;;;5025883;28;20029;-53
2023/03/29 06:16:04;;;;;;;16.88;7.80;;;;;;;;;;5025376;28;20466;-55
2023/03/29 06:18:30;;;;;;;19.83;8.48;;;;;;;;;;5009153;28;20030;-54
2023/03/29 06:20:55;;;;;;;15.13;6.93;;;;;;;;;;5023557;28;20040;-57
2023/03/29 06:23:21;;;;;;;11.00;5.38;;;;;;;;;;5030556;28;20025;-53
2023/03/29 06:25:46;;;;;;;12.52;6.05;;;;;;;;;;5016318;28;20021;-57
2023/03/29 06:28:13;;;;;;;11.82;4.95;;;;;;;;;;5024432;28;20025;-54
2023/03/29 06:30:38;;;;;;;10.38;5.28;;;;;;;;;;5016336;28;20026;-56
2023/03/29 06:33:06;;;;;;;8.15;5.05;;;;;;;;;;5016593;28;20103;-55
2023/03/29 06:35:33;;;;;;;147.95;88.75;;;;;;;;;;5012027;28;20060;-54
2023/03/29 06:37:59;;;;;;;9.07;3.33;;;;;;;;;;5016951;28;20092;-57
2023/03/29 06:40:26;;;;;;;8.73;3.70;;;;;;;;;;5010012;28;20455;-55
2023/03/29 06:42:56;;;;;;;9.30;3.35;;;;;;;;;;5025975;28;20035;-54
2023/03/29 06:45:22;;;;;;;10.88;4.43;;;;;;;;;;5014625;28;20761;-55
2023/03/29 06:47:47;;;;;;;9.13;3.83;;;;;;;;;;5021067;28;20269;-57
2023/03/29 06:50:13;;;;;;;8.98;4.18;;;;;;;;;;5007874;28;20032;-57
2023/03/29 06:52:38;;;;;;;7.35;3.35;;;;;;;;;;5022485;28;20045;-55
2023/03/29 06:55:06;;;;;;;7.10;3.65;;;;;;;;;;5011499;28;20030;-56
2023/03/29 06:57:32;;;;;;;7.45;3.72;;;;;;;;;;5017028;28;20281;-56
2023/03/29 06:59:58;;;;;;;5.70;2.80;;;;;;;;;;5032449;28;20032;-52
2023/03/29 07:02:23;;;;;;;5.93;2.83;;;;;;;;;;5025027;28;20026;-56
2023/03/29 07:04:48;;;;;;;10.15;3.75;;;;;;;;;;5020395;28;20056;-56
2023/03/29 07:07:19;;;;;;;5.28;2.90;;;;;;;;;;5022671;28;20017;-54
2023/03/29 07:09:52;;;;;;;11.57;4.45;;;;;;;;;;5021397;28;20155;-56
2023/03/29 07:12:18;;;;;;;5.88;2.95;;;;;;;;;;5014742;28;20579;-57
2023/03/29 07:14:43;;;;;;;5.88;3.28;;;;;;;;;;5038797;28;20116;-54
2023/03/29 07:17:09;;;;;;;5.35;2.70;;;;;;;;;;5022380;28;20028;-55
2023/03/29 07:19:34;;;;;;;6.50;2.42;;;;;;;;;;5021865;28;20133;-56
2023/03/29 07:21:59;;;;;;;6.85;2.97;;;;;;;;;;5014403;28;20040;-56
2023/03/29 07:24:25;;;;;;;6.00;2.25;;;;;;;;;;5032153;28;20091;-56
2023/03/29 07:26:51;;;;;;;5.32;2.10;;;;;;;;;;5031475;28;20056;-56
2023/03/29 07:29:16;;;;;;;4.47;2.38;;;;;;;;;;5030900;28;20049;-58
2023/03/29 07:31:42;;;;;;;3.70;2.38;;;;;;;;;;5032266;28;20409;-58
2023/03/29 07:34:09;;;;;;;6.00;2.00;;;;;;;;;;5041311;28;20094;-55
2023/03/29 07:36:38;;;;;;;3.13;1.90;;;;;;;;;;5040435;28;20098;-56
2023/03/29 07:39:04;;;;;;;4.05;1.83;;;;;;;;;;5038277;28;20520;-54
2023/03/29 07:41:30;;;;;;;7.03;2.17;;;;;;;;;;5034217;28;20100;-53
2023/03/29 07:43:55;;;;;;;4.07;2.05;;;;;;;;;;5033209;28;20048;-55
2023/03/29 07:46:21;;;;;;;5.30;1.95;;;;;;;;;;5024111;28;20492;-53
2023/03/29 07:48:46;;;;;;;3.67;1.88;;;;;;;;;;5041012;28;20129;-53
2023/03/29 07:51:11;;;;;;;4.25;2.03;;;;;;;;;;5040812;28;20041;-55
2023/03/29 07:53:37;;;;;;;9.43;2.20;;;;;;;;;;5038472;28;20128;-56
2023/03/29 07:56:03;;;;;;;3.63;2.38;;;;;;;;;;5024028;28;20049;-49
2023/03/29 07:58:28;;;;;;;9.32;1.98;;;;;;;;;;5039414;28;20358;-53
2023/03/29 08:00:53;;;;;;;5.90;2.35;;;;;;;;;;5028514;28;20025;-53
2023/03/29 08:03:19;;;;;;;4.32;2.33;;;;;;;;;;5024637;28;20029;-51
2023/03/29 08:05:44;;;;;;;455.35;212.30;;;;;;;;;;5037695;28;20056;-52
2023/03/29 08:08:10;;;;;;;4.57;2.00;;;;;;;;;;5021976;28;20084;-52
2023/03/29 08:10:36;;;;;;;6.25;2.40;;;;;;;;;;5014283;28;20070;-52
2023/03/29 08:13:03;;;;;;;3.80;2.10;;;;;;;;;;5034479;28;20107;-53
2023/03/29 08:15:28;;;;;;;4.97;2.50;;;;;;;;;;5031458;28;20064;-51
2023/03/29 08:17:53;;;;;;;7.03;2.45;;;;;;;;;;5024618;28;20467;-53
2023/03/29 08:20:19;;;;;;;9.13;2.78;;;;;;;;;;5033867;28;20529;-52
2023/03/29 08:22:44;;;;;;;6.20;2.78;;;;;;;;;;5030895;28;20036;-52
2023/03/29 08:25:10;;;;;;;5.90;2.25;;;;;;;;;;5035548;28;20475;-54
2023/03/29 08:27:36;;;;;;;8.77;2.67;;;;;;;;;;5020908;28;20502;-57
2023/03/29 08:30:02;;;;;;;4.32;2.25;;;;;;;;;;5014004;28;20128;-54
2023/03/29 08:32:27;;;;;;;15.68;5.75;;;;;;;;;;5023587;28;20046;-57
2023/03/29 08:34:52;;;;;;;7.70;2.45;;;;;;;;;;5023024;28;20082;-56
2023/03/29 08:37:18;;;;;;;12.52;3.92;;;;;;;;;;5015519;28;20021;-56
2023/03/29 08:39:43;;;;;;;11.30;3.28;;;;;;;;;;5022420;28;20140;-56
2023/03/29 08:42:27;;;;;;;13.35;4.55;;;;;;;;;;5033510;28;20472;-49
2023/03/29 08:45:04;;;;;;;9.80;3.95;;;;;;;;;;5024582;28;20342;-49
2023/03/29 08:47:44;;;;;;;7.93;2.88;;;;;;;;;;5017834;28;20108;-51
2023/03/29 08:50:11;;;;;;;7.35;3.33;;;;;;;;;;5037089;28;20048;-54
2023/03/29 08:52:36;;;;;;;5.60;2.35;;;;;;;;;;5036787;28;20025;-51
2023/03/29 08:55:04;;;;;;;11.10;2.47;;;;;;;;;;5025562;28;20025;-52
2023/03/29 08:57:39;;;;;;;9.40;3.10;;;;;;;;;;5023394;28;20286;-54
2023/03/29 09:00:06;;;;;;;10.50;3.10;;;;;;;;;;5034305;28;20025;-52
2023/03/29 09:02:33;;;;;;;10.20;2.75;;;;;;;;;;5029064;28;20098;-51
2023/03/29 09:05:06;;;;;;;4.25;1.80;;;;;;;;;;5022736;28;20458;-51
2023/03/29 09:07:31;;;;;;;6.30;2.28;;;;;;;;;;5032901;28;20075;-49
2023/03/29 09:09:57;;;;;;;11.68;3.08;;;;;;;;;;5022484;28;20479;-53
2023/03/29 09:12:34;;;;;;;9.75;2.92;;;;;;;;;;5017687;28;20456;-50
2023/03/29 09:14:59;;;;;;;12.73;3.83;;;;;;;;;;5020357;28;20116;-54
2023/03/29 09:17:43;;;;;;;11.68;3.80;;;;;;;;;;5006634;28;20646;-56
2023/03/29 09:20:14;;;;;;;11.32;2.97;;;;;;;;;;5026083;28;20021;-56
2023/03/29 09:22:53;;;;;;;6.30;2.55;;;;;;;;;;5026085;28;20033;-52
2023/03/29 09:25:20;;;;;;;9.30;2.78;;;;;;;;;;5025849;28;20021;-53
2023/03/29 09:27:45;;;;;;;6.70;2.05;;;;;;;;;;5024833;28;20036;-53
2023/03/29 09:30:23;;;;;;;5.25;2.10;;;;;;;;;;5039793;28;20038;-53
2023/03/29 09:32:51;;;;;;;16.70;3.15;;;;;;;;;;5023526;28;20053;-53
2023/03/29 09:35:36;;;;;;;10.55;2.80;;;;;;;;;;5025757;28;20028;-51
2023/03/29 09:38:02;;;;;;;8.00;2.20;;;;;;;;;;5025784;28;20037;-54
2023/03/29 09:40:31;;;;;;;9.43;2.53;;;;;;;;;;5025281;28;20029;-50
2023/03/29 09:42:57;;;;;;;7.20;2.55;;;;;;;;;;5024873;28;20036;-52
2023/03/29 09:45:22;;;;;;;12.75;2.65;;;;;;;;;;5024610;28;20029;-52
2023/03/29 09:47:50;;;;;;;7.43;2.15;;;;;;;;;;5021914;28;20372;-51
2023/03/29 09:50:29;;;;;;;14.73;3.08;;;;;;;;;;5025332;28;20533;-55
2023/03/29 09:52:55;;;;;;;5.22;1.95;;;;;;;;;;5033775;28;20874;-53
2023/03/29 09:55:23;;;;;;;9.75;2.42;;;;;;;;;;5027566;28;20215;-52
2023/03/29 09:57:49;;;;;;;10.38;2.40;;;;;;;;;;5022715;28;20022;-52
2023/03/29 10:00:15;;;;;;;8.23;2.40;;;;;;;;;;5018641;28;20037;-53
2023/03/29 10:02:41;;;;;;;5.38;2.20;;;;;;;;;;5026944;28;20033;-54
2023/03/29 10:05:06;;;;;;;9.07;2.30;;;;;;;;;;5020469;28;20033;-55
2023/03/29 10:07:43;;;;;;;11.48;3.38;;;;;;;;;;5005196;28;20043;-54
2023/03/29 10:10:09;;;;;;;5.75;2.53;;;;;;;;;;5022502;28;20392;-54
2023/03/29 10:12:35;;;;;;;9.15;2.50;;;;;;;;;;5055792;28;20356;-55
2023/03/29 10:15:02;;;;;;;6.15;1.98;;;;;;;;;;5020766;28;20091;-53
2023/03/29 10:17:31;;;;;;;6.72;2.13;;;;;;;;;;5024247;28;20025;-52
2023/03/29 10:19:57;;;;;;;;;;;;;;;;;;5024797;28;20025;-54
2023/03/29 10:22:23;;;;;;;8.47;2.53;;;;;;;;;;5019779;28;20442;-54
2023/03/29 10:24:50;;;;;;;4.95;2.20;;;;;;;;;;5024624;28;20018;-53
2023/03/29 10:27:18;;;;;;;10.45;2.30;;;;;;;;;;5022305;28;20028;-53
2023/03/29 10:29:43;;;;;;;7.13;2.40;;;;;;;;;;5024703;28;20056;-50
2023/03/29 10:32:21;;;;;;;5.55;2.20;;;;;;;;;;5040985;28;20037;-55
2023/03/29 10:34:47;;;;;;;5.63;2.15;;;;;;;;;;5007656;28;20073;-55
2023/03/29 10:37:15;;;;;;;6.60;1.92;;;;;;;;;;5041079;28;20596;-55
2023/03/29 10:39:41;;;;;;;5.88;2.13;;;;;;;;;;5024816;28;20044;-53
2023/03/29 10:42:10;;;;;;;5.53;2.03;;;;;;;;;;5041172;28;20025;-51
2023/03/29 10:44:35;;;;;;;7.03;3.30;;;;;;;;;;5040240;28;20474;-54
2023/03/29 10:47:18;;;;;;;8.85;2.00;;;;;;;;;;5040192;28;20040;-51
2023/03/29 10:49:45;;;;;;;4.57;1.95;;;;;;;;;;5041168;28;20020;-55
2023/03/29 10:52:13;;;;;;;5.72;2.10;;;;;;;;;;5007802;28;20123;-54
2023/03/29 10:54:39;;;;;;;10.00;2.27;;;;;;;;;;5041188;28;20021;-55
2023/03/29 10:57:08;;;;;;;5.88;2.00;;;;;;;;;;5040911;28;20118;-54
2023/03/29 10:59:41;;;;;;;4.18;1.77;;;;;;;;;;5040759;28;20021;-51
2023/03/29 11:02:12;;;;;;;3.35;1.92;;;;;;;;;;5039837;28;20481;-53
2023/03/29 11:04:44;;;;;;;2.78;1.60;;;;;;;;;;5004774;28;20022;-51
2023/03/29 11:07:27;;;;;;;5.63;1.73;;;;;;;;;;5008925;28;21597;-54
2023/03/29 11:10:31;;;;;;;3.53;1.70;;;;;;;;;;5018725;28;20033;-56
2023/03/29 11:12:59;;;;;;;5.75;2.10;;;;;;;;;;4983202;28;20061;-55
2023/03/29 11:15:34;;;;;;;4.20;1.58;;;;;;;;;;4998793;28;20058;-53
2023/03/29 11:18:15;;;;;;;5.13;1.73;;;;;;;;;;5000905;28;20033;-52
2023/03/29 11:20:58;;;;;;;5.82;1.70;;;;;;;;;;5000763;28;20109;-55
2023/03/29 11:23:49;;;;;;;6.65;2.00;;;;;;;;;;4992436;28;20029;-57
2023/03/29 11:26:26;;;;;;;9.80;2.47;;;;;;;;;;4980577;28;20129;-51
2023/03/29 11:28:52;;;;;;;12.57;2.40;;;;;;;;;;4971690;28;20057;-53
2023/03/29 11:31:40;;;;;;;8.23;2.30;;;;;;;;;;4968605;28;20038;-56
2023/03/29 11:34:05;;;;;;;9.68;2.75;;;;;;;;;;4976276;28;20034;-54
2023/03/29 11:36:42;;;;;;;7.60;2.10;;;;;;;;;;4976464;28;20788;-56
2023/03/29 11:39:10;;;;;;;4.80;1.75;;;;;;;;;;4975239;28;20097;-55
2023/03/29 11:41:41;;;;;;;6.20;2.07;;;;;;;;;;4977468;28;20510;-53
2023/03/29 11:44:22;;;;;;;4.53;1.90;;;;;;;;;;4988417;28;20838;-57
2023/03/29 11:46:59;;;;;;;5.85;2.05;;;;;;;;;;4993868;28;20540;-52
2023/03/29 11:49:24;;;;;;;11.23;2.53;;;;;;;;;;4988047;28;20726;-56
2023/03/29 11:51:54;;;;;;;6.93;2.37;;;;;;;;;;4984312;28;20039;-56
2023/03/29 11:54:40;;;;;;;5.00;1.98;;;;;;;;;;4992094;28;20776;-55
2023/03/29 11:57:14;;;;;;;9.73;2.55;;;;;;;;;;4997305;28;20033;-53
2023/03/29 11:59:42;;;;;;;6.57;2.38;;;;;;;;;;4995169;28;20376;-57
2023/03/29 12:02:13;;;;;;;5.75;2.17;;;;;;;;;;4991917;28;20038;-56
2023/03/29 12:04:41;;;;;;;7.07;2.38;;;;;;;;;;5023524;28;20068;-52
2023/03/29 12:07:13;;;;;;;6.70;2.63;;;;;;;;;;5036713;28;20036;-58
2023/03/29 12:09:43;;;;;;;4.53;2.03;;;;;;;;;;5037537;28;20055;-58
2023/03/29 12:12:20;;;;;;;7.72;2.63;;;;;;;;;;5033524;28;20511;-53
2023/03/29 12:15:00;;;;;;;7.32;2.58;;;;;;;;;;5020963;28;20522;-55
2023/03/29 12:17:31;;;;;;;7.80;2.53;;;;;;;;;;5020439;28;20029;-56
2023/03/29 12:20:05;;;;;;;11.35;3.08;;;;;;;;;;5038676;28;20036;-51
2023/03/29 12:22:31;;;;;;;7.47;2.72;;;;;;;;;;5029351;28;20799;-52
2023/03/29 12:24:57;;;;;;;10.65;3.70;;;;;;;;;;5031812;28;20056;-55
2023/03/29 12:27:29;;;;;;;14.80;4.00;;;;;;;;;;5055189;28;20219;-58
2023/03/29 12:30:06;;;;;;;12.77;3.65;;;;;;;;;;5027358;28;20029;-58
2023/03/29 12:32:32;;;;;;;10.55;2.97;;;;;;;;;;5026350;28;20143;-55
2023/03/29 12:34:57;;;;;;;7.67;3.27;;;;;;;;;;5018126;28;20673;-57
2023/03/29 12:37:45;;;;;;;15.70;8.77;;;;;;;;;;5012140;28;20302;-56
2023/03/29 12:40:18;;;;;;;9.50;3.60;;;;;;;;;;5015308;28;20569;-53
2023/03/29 12:43:03;;;;;;;7.13;3.42;;;;;;;;;;5024065;28;20040;-52
2023/03/29 12:45:32;;;;;;;7.45;3.20;;;;;;;;;;5022989;28;20044;-54
2023/03/29 12:47:58;;;;;;;10.13;3.38;;;;;;;;;;5020288;28;20075;-54
2023/03/29 12:50:27;;;;;;;22.77;6.28;;;;;;;;;;5008989;28;20068;-57
2023/03/29 12:53:00;;;;;;;17.95;7.60;;;;;;;;;;5005422;28;20442;-53
2023/03/29 12:55:41;;;;;;;20.58;7.15;;;;;;;;;;5019492;28;20036;-53
2023/03/29 12:58:19;;;;;;;15.00;4.15;;;;;;;;;;5021118;28;20049;-54
2023/03/29 13:00:46;;;;;;;15.45;4.65;;;;;;;;;;5016867;28;20549;-56
2023/03/29 13:03:21;;;;;;;10.23;3.63;;;;;;;;;;5016422;28;20033;-56
2023/03/29 13:05:57;;;;;;;20.25;5.15;;;;;;;;;;5021864;28;20611;-52
2023/03/29 13:08:25;;;;;;;18.52;5.82;;;;;;;;;;5016650;28;20040;-56
2023/03/29 13:10:52;;;;;;;24.10;6.03;;;;;;;;;;5021957;28;20120;-52
2023/03/29 13:13:22;;;;;;;12.13;4.15;;;;;;;;;;5021008;28;20116;-55
2023/03/29 13:15:47;;;;;;;15.15;4.95;;;;;;;;;;5021192;28;20021;-57
2023/03/29 13:18:13;;;;;;;9.70;3.55;;;;;;;;;;5012379;28;20503;-56
2023/03/29 13:20:46;;;;;;;10.10;3.25;;;;;;;;;;5023905;28;20018;-57
2023/03/29 13:23:17;;;;;;;11.20;3.72;;;;;;;;;;4990400;28;20165;-55
2023/03/29 13:26:07;;;;;;;10.27;3.47;;;;;;;;;;5003697;28;20038;-53
2023/03/29 13:28:44;;;;;;;9.82;3.80;;;;;;;;;;4947962;28;20377;-51
2023/03/29 13:31:16;;;;;;;10.75;3.60;;;;;;;;;;4964633;28;20054;-55
2023/03/29 13:33:54;;;;;;;15.85;3.90;;;;;;;;;;4963769;28;20057;-55
2023/03/29 13:36:52;;;;;;;19.85;6.45;;;;;;;;;;4964776;28;20483;-57
2023/03/29 13:39:22;;;;;;;9.13;4.07;;;;;;;;;;4888350;29;20084;-55
2023/03/29 13:41:49;;;;;;;12.05;3.55;;;;;;;;;;4883646;29;20055;-59
2023/03/29 13:44:48;;;;;;;12.45;3.42;;;;;;;;;;4886274;29;20192;-58
2023/03/29 13:47:28;;;;;;;15.60;4.10;;;;;;;;;;4806059;29;20114;-57
2023/03/29 13:49:58;;;;;;;9.88;2.65;;;;;;;;;;4812662;29;20069;-58
2023/03/29 13:52:26;;;;;;;9.65;3.17;;;;;;;;;;4810382;29;20099;-59
2023/03/29 13:55:06;;;;;;;8.32;3.58;;;;;;;;;;4825593;29;20125;-57
2023/03/29 13:57:40;;;;;;;12.77;4.22;;;;;;;;;;4827748;29;20098;-55
2023/03/29 14:00:16;;;;;;;11.65;3.95;;;;;;;;;;4833149;29;20101;-53
2023/03/29 14:02:56;;;;;;;12.50;3.33;;;;;;;;;;4828911;29;20267;-58
2023/03/29 14:05:27;;;;;;;13.90;3.80;;;;;;;;;;4836655;29;20048;-56
2023/03/29 14:07:53;;;;;;;15.40;4.10;;;;;;;;;;4856947;29;20045;-58
2023/03/29 14:10:26;;;;;;;28.70;5.15;;;;;;;;;;4866837;29;20045;-56
2023/03/29 14:12:52;;;;;;;21.33;7.40;;;;;;;;;;4866945;29;20037;-51
2023/03/29 14:15:41;;;;;;;19.88;6.65;;;;;;;;;;4901740;29;20050;-53
2023/03/29 14:18:09;;;;;;;8.57;3.47;;;;;;;;;;4908048;29;20115;-54
2023/03/29 14:20:35;;;;;;;14.85;4.40;;;;;;;;;;4907897;29;20565;-57
2023/03/29 14:23:07;;;;;;;8.73;3.22;;;;;;;;;;4976230;28;20034;-54
2023/03/29 14:25:35;;;;;;;16.67;4.32;;;;;;;;;;5018676;28;20025;-58
2023/03/29 14:28:00;;;;;;;16.90;4.93;;;;;;;;;;5022677;28;20165;-59
2023/03/29 14:30:27;;;;;;;28.15;16.27;;;;;;;;;;5026312;28;20570;-56
2023/03/29 14:32:52;;;;;;;8.02;3.40;;;;;;;;;;5035074;28;20037;-57
2023/03/29 14:35:18;;;;;;;10.55;3.58;;;;;;;;;;5015491;28;20049;-56
2023/03/29 14:37:45;;;;;;;11.95;3.65;;;;;;;;;;5015566;28;20028;-51
2023/03/29 14:40:19;;;;;;;8.20;3.30;;;;;;;;;;5005071;28;20025;-55
2023/03/29 14:42:46;;;;;;;5.65;2.97;;;;;;;;;;5005278;28;20021;-53
2023/03/29 14:45:13;;;;;;;8.85;3.50;;;;;;;;;;5004455;28;20026;-54